Time;durP1;ratioP1;P1;durP2;ratioP2;P2;SDS_P1;SDS_P2;PMS_P1;PMS_P2;Temp;Humidity;BMP_temperature;BMP_pressure;BME280_temperature;BME280_humidity;BME280_pressure;Samples;Min_cycle;Max_cycle;Signal;HPM_P1;HPM_P2
2023/04/10 00:02:18;;;;;;;19.83;9.93;;;9.80;99.90;;;;;;5116963;28;20028;-92
2023/04/10 00:04:43;;;;;;;22.48;10.32;;;9.80;99.90;;;;;;5117019;28;20055;-92
2023/04/10 00:07:09;;;;;;;24.08;12.13;;;9.80;99.90;;;;;;5117600;28;20031;-92
2023/04/10 00:09:35;;;;;;;25.23;11.73;;;9.70;99.90;;;;;;5116564;28;20110;-91
2023/04/10 00:12:01;;;;;;;21.73;11.25;;;9.70;99.90;;;;;;5116292;28;20055;-92
2023/04/10 00:14:27;;;;;;;17.77;9.50;;;9.70;99.90;;;;;;5117409;28;20030;-92
2023/04/10 00:16:53;;;;;;;21.42;10.20;;;9.60;99.90;;;;;;5116776;28;20028;-90
2023/04/10 00:19:19;;;;;;;25.02;12.10;;;9.60;99.90;;;;;;5115847;28;20023;-91
2023/04/10 00:21:45;;;;;;;24.63;11.90;;;9.60;99.90;;;;;;5116750;28;20023;-91
2023/04/10 00:24:12;;;;;;;23.48;9.32;;;9.50;99.90;;;;;;5116641;28;20024;-91
2023/04/10 00:26:38;;;;;;;22.75;10.98;;;9.50;99.90;;;;;;5116751;28;20079;-91
2023/04/10 00:29:04;;;;;;;23.00;11.73;;;9.50;99.90;;;;;;5115966;28;20043;-90
2023/04/10 00:31:30;;;;;;;22.85;10.70;;;9.50;99.90;;;;;;5117099;28;20028;-90
2023/04/10 00:33:56;;;;;;;23.20;12.77;;;9.50;99.90;;;;;;5116804;28;20060;-92
2023/04/10 00:36:22;;;;;;;28.88;11.90;;;9.50;99.90;;;;;;5120802;28;20032;-89
2023/04/10 00:38:48;;;;;;;24.02;11.40;;;9.40;99.90;;;;;;5123824;28;20063;-91
2023/04/10 00:41:14;;;;;;;24.70;10.98;;;9.40;99.90;;;;;;5116284;28;20016;-91
2023/04/10 00:43:40;;;;;;;22.90;12.13;;;9.40;99.90;;;;;;5119791;28;20057;-91
2023/04/10 00:46:06;;;;;;;25.10;10.88;;;9.40;99.90;;;;;;5115917;28;20024;-92
2023/04/10 00:48:32;;;;;;;26.70;12.23;;;9.40;99.90;;;;;;5116052;28;20088;-91
2023/04/10 00:50:59;;;;;;;23.63;11.50;;;9.30;99.90;;;;;;5116057;28;20076;-89
2023/04/10 00:53:25;;;;;;;24.63;12.98;;;9.30;99.90;;;;;;5115722;28;20028;-90
2023/04/10 00:55:51;;;;;;;25.98;11.68;;;9.30;99.90;;;;;;5115464;28;20016;-91
2023/04/10 00:58:17;;;;;;;25.42;11.18;;;9.30;99.90;;;;;;5098198;28;20024;-90
2023/04/10 01:00:43;;;;;;;29.27;13.05;;;9.30;99.90;;;;;;5094422;28;20105;-89
2023/04/10 01:03:11;;;;;;;30.50;13.98;;;9.20;99.90;;;;;;5094045;28;20020;-89
2023/04/10 01:05:55;;;;;;;25.20;12.70;;;9.20;99.90;;;;;;5093749;28;20078;-90
2023/04/10 01:08:30;;;;;;;26.35;13.45;;;9.20;99.90;;;;;;5093984;28;20032;-87
2023/04/10 01:11:05;;;;;;;29.40;14.43;;;9.20;99.90;;;;;;5094287;28;20024;-88
2023/04/10 01:13:42;;;;;;;32.78;15.20;;;9.10;99.90;;;;;;5094378;28;20034;-87
2023/04/10 01:16:18;;;;;;;34.50;15.52;;;9.10;99.90;;;;;;5092871;28;20062;-87
2023/04/10 01:19:04;;;;;;;37.17;15.75;;;9.10;99.90;;;;;;5092781;28;20526;-89
2023/04/10 01:21:31;;;;;;;30.85;14.30;;;9.00;99.90;;;;;;5092385;28;20042;-88
2023/04/10 01:24:00;;;;;;;36.65;14.95;;;9.00;99.90;;;;;;5092725;28;20102;-87
2023/04/10 01:26:57;;;;;;;30.90;13.25;;;9.00;99.90;;;;;;5100806;28;20019;-88
2023/04/10 01:29:28;;;;;;;32.33;15.55;;;8.90;99.90;;;;;;5113001;28;20122;-89
2023/04/10 01:32:00;;;;;;;;;;;8.90;99.90;;;;;;5114320;28;20019;-89
2023/04/10 01:34:38;;;;;;;30.75;14.00;;;8.90;99.90;;;;;;5113536;28;19966;-88
2023/04/10 01:37:11;;;;;;;29.10;14.77;;;8.90;99.90;;;;;;5114043;28;20468;-89
2023/04/10 01:39:40;;;;;;;38.38;16.27;;;8.90;99.90;;;;;;5121944;28;20051;-88
2023/04/10 01:42:07;;;;;;;32.30;14.75;;;8.90;99.90;;;;;;5127120;28;20120;-87
2023/04/10 01:44:36;;;;;;;29.40;15.73;;;8.80;99.90;;;;;;5123720;28;20023;-89
2023/04/10 01:47:06;;;;;;;34.15;15.68;;;8.90;99.90;;;;;;5117534;28;20092;-87
2023/04/10 01:49:33;;;;;;;34.13;14.82;;;8.80;99.90;;;;;;5115905;28;20046;-90
2023/04/10 01:52:00;;;;;;;35.95;16.77;;;8.80;99.90;;;;;;5115036;28;20126;-89
2023/04/10 01:54:31;;;;;;;31.17;14.27;;;8.90;99.90;;;;;;5114096;28;20024;-89
2023/04/10 01:57:02;;;;;;;31.73;14.95;;;8.80;99.90;;;;;;5113956;28;20498;-90
2023/04/10 01:59:28;;;;;;;31.63;15.52;;;8.80;99.90;;;;;;5114900;28;20031;-90
2023/04/10 02:01:58;;;;;;;29.77;13.23;;;8.90;99.90;;;;;;5113733;28;20407;-90
2023/04/10 02:04:25;;;;;;;31.95;16.15;;;8.90;99.90;;;;;;5112636;28;20051;-92
2023/04/10 02:07:23;;;;;;;36.55;17.63;;;8.80;99.90;;;;;;5112768;28;20559;-90
2023/04/10 02:10:00;;;;;;;35.72;18.60;;;8.80;99.90;;;;;;5108459;28;20396;-88
2023/04/10 02:12:38;;;;;;;29.95;14.07;;;8.90;99.90;;;;;;5100804;28;20063;-90
2023/04/10 02:15:07;;;;;;;35.30;16.85;;;8.80;99.90;;;;;;5116438;28;20099;-89
2023/04/10 02:17:35;;;;;;;29.05;14.27;;;8.80;99.90;;;;;;5112815;28;20055;-90
2023/04/10 02:20:03;;;;;;;29.48;14.95;;;8.80;99.90;;;;;;5112344;28;20110;-89
2023/04/10 02:22:29;;;;;;;34.13;14.80;;;8.80;99.90;;;;;;5112312;28;20144;-89
2023/04/10 02:24:56;;;;;;;28.13;13.70;;;8.80;99.90;;;;;;5112326;28;20023;-88
2023/04/10 02:27:33;;;;;;;30.23;15.32;;;8.80;99.90;;;;;;5112062;28;20031;-89
2023/04/10 02:29:59;;;;;;;27.08;13.85;;;8.80;99.90;;;;;;5112291;28;20036;-89
2023/04/10 02:32:26;;;;;;;24.45;12.77;;;8.90;99.90;;;;;;5113352;28;20019;-88
2023/04/10 02:34:51;;;;;;;20.30;11.13;;;8.90;99.90;;;;;;5112881;28;20057;-89
2023/04/10 02:37:17;;;;;;;21.50;11.60;;;8.90;99.90;;;;;;5112601;28;20054;-89
2023/04/10 02:39:43;;;;;;;23.50;12.00;;;8.90;99.90;;;;;;5111894;28;20035;-90
2023/04/10 02:42:08;;;;;;;23.50;11.73;;;8.90;99.90;;;;;;5112273;28;20060;-90
2023/04/10 02:44:34;;;;;;;18.60;9.85;;;8.90;99.90;;;;;;5111580;28;20036;-89
2023/04/10 02:47:00;;;;;;;23.20;11.88;;;8.90;99.90;;;;;;5112003;28;20023;-88
2023/04/10 02:49:26;;;;;;;21.30;10.27;;;8.80;99.90;;;;;;5112590;28;20485;-89
2023/04/10 02:51:51;;;;;;;19.58;10.10;;;8.80;99.90;;;;;;5112245;28;20043;-89
2023/04/10 02:54:17;;;;;;;20.98;11.07;;;8.80;99.90;;;;;;5111659;28;20597;-88
2023/04/10 02:56:43;;;;;;;21.88;9.63;;;8.80;99.90;;;;;;5111868;28;20028;-89
2023/04/10 02:59:08;;;;;;;17.27;10.43;;;8.80;99.90;;;;;;5112317;28;20504;-89
2023/04/10 03:01:35;;;;;;;18.38;10.13;;;8.80;99.90;;;;;;5112153;28;20398;-88
2023/04/10 03:04:02;;;;;;;18.48;10.60;;;8.80;99.90;;;;;;5111565;28;20398;-89
2023/04/10 03:06:28;;;;;;;20.58;10.90;;;8.80;99.90;;;;;;5111810;28;20043;-89
2023/04/10 03:08:54;;;;;;;15.52;8.48;;;8.80;99.90;;;;;;5112112;28;20119;-89
2023/04/10 03:11:19;;;;;;;20.08;10.55;;;8.80;99.90;;;;;;5112034;28;20069;-89
2023/04/10 03:13:46;;;;;;;22.08;11.45;;;8.80;99.90;;;;;;5111596;28;20118;-89
2023/04/10 03:16:11;;;;;;;19.52;10.98;;;8.80;99.90;;;;;;5112831;28;20069;-88
2023/04/10 03:18:37;;;;;;;21.30;10.48;;;8.80;99.90;;;;;;5111676;28;20063;-90
2023/04/10 03:21:03;;;;;;;22.17;11.02;;;8.80;99.90;;;;;;5112190;28;20027;-88
2023/04/10 03:23:28;;;;;;;23.15;12.45;;;8.80;99.90;;;;;;5111871;28;20035;-89
2023/04/10 03:25:54;;;;;;;23.50;12.73;;;8.80;99.90;;;;;;5111526;28;20015;-90
2023/04/10 03:28:20;;;;;;;22.63;12.00;;;8.80;99.90;;;;;;5113428;28;20028;-91
2023/04/10 03:30:47;;;;;;;24.70;13.30;;;8.80;99.90;;;;;;5112102;28;20034;-88
2023/04/10 03:33:12;;;;;;;24.02;12.20;;;8.80;99.90;;;;;;5112218;28;20511;-89
2023/04/10 03:35:38;;;;;;;25.63;13.68;;;8.80;99.90;;;;;;5112055;28;20020;-89
2023/04/10 03:38:04;;;;;;;26.40;14.32;;;8.80;99.90;;;;;;5110766;28;20086;-89
2023/04/10 03:40:30;;;;;;;27.70;14.88;;;8.90;99.90;;;;;;5110161;28;20023;-90
2023/04/10 03:42:55;;;;;;;28.63;14.95;;;8.90;99.90;;;;;;5110563;28;20473;-90
2023/04/10 03:45:21;;;;;;;29.23;14.63;;;8.90;99.90;;;;;;5112285;28;20055;-90
2023/04/10 03:47:46;;;;;;;27.65;13.18;;;8.90;99.90;;;;;;5116141;28;20030;-90
2023/04/10 03:50:12;;;;;;;30.30;14.30;;;8.90;99.90;;;;;;5115487;28;20046;-89
2023/04/10 03:52:39;;;;;;;25.88;13.18;;;8.90;99.90;;;;;;5116923;28;20028;-90
2023/04/10 03:55:05;;;;;;;23.95;11.07;;;9.00;99.90;;;;;;5115917;28;20032;-90
2023/04/10 03:57:31;;;;;;;25.63;13.57;;;8.90;99.90;;;;;;5115147;28;20024;-90
2023/04/10 03:59:56;;;;;;;26.73;12.27;;;8.90;99.90;;;;;;5114768;28;20046;-89
2023/04/10 04:02:22;;;;;;;26.23;13.98;;;8.90;99.90;;;;;;5116191;28;20099;-89
2023/04/10 04:04:48;;;;;;;26.75;13.52;;;9.00;99.90;;;;;;5114962;28;20417;-88
2023/04/10 04:07:13;;;;;;;29.52;13.55;;;9.00;99.90;;;;;;5115360;28;20034;-89
2023/04/10 04:09:40;;;;;;;28.40;14.40;;;9.00;99.90;;;;;;5119012;28;20043;-88
2023/04/10 04:12:06;;;;;;;29.75;12.02;;;9.00;99.90;;;;;;5129734;28;20055;-89
2023/04/10 04:14:32;;;;;;;28.77;12.73;;;9.00;99.90;;;;;;5118576;28;20050;-89
2023/04/10 04:16:57;;;;;;;33.83;15.38;;;9.00;99.90;;;;;;5114835;28;20016;-89
2023/04/10 04:19:23;;;;;;;30.35;13.32;;;9.00;99.90;;;;;;5114767;28;20469;-89
2023/04/10 04:21:49;;;;;;;24.65;13.77;;;9.00;99.90;;;;;;5115440;28;20034;-89
2023/04/10 04:24:15;;;;;;;28.05;13.65;;;9.00;99.90;;;;;;5114219;28;20495;-89
2023/04/10 04:26:40;;;;;;;19.77;9.52;;;9.00;99.90;;;;;;5114453;28;20110;-89
2023/04/10 04:29:06;;;;;;;24.63;13.40;;;9.00;99.90;;;;;;5114630;28;20031;-89
2023/04/10 04:31:32;;;;;;;25.52;13.00;;;9.00;99.90;;;;;;5114297;28;20621;-90
2023/04/10 04:33:58;;;;;;;27.65;13.82;;;9.00;99.90;;;;;;5114613;28;20024;-88
2023/04/10 04:36:24;;;;;;;21.20;10.45;;;9.10;99.90;;;;;;5114612;28;20015;-89
2023/04/10 04:38:50;;;;;;;23.23;12.02;;;9.10;99.90;;;;;;5114231;28;20085;-89
2023/04/10 04:41:15;;;;;;;24.77;12.98;;;9.10;99.90;;;;;;5114979;28;20031;-89
2023/04/10 04:43:41;;;;;;;28.77;13.93;;;9.10;99.90;;;;;;5114229;28;20495;-88
2023/04/10 04:46:07;;;;;;;30.20;14.38;;;9.10;99.90;;;;;;5114056;28;20023;-89
2023/04/10 04:48:34;;;;;;;29.65;13.02;;;9.10;99.90;;;;;;5114086;28;20074;-89
2023/04/10 04:51:00;;;;;;;27.25;13.38;;;9.10;99.90;;;;;;5114646;28;20549;-89
2023/04/10 04:53:26;;;;;;;29.65;12.68;;;9.10;99.90;;;;;;5115028;28;20023;-88
2023/04/10 04:55:51;;;;;;;26.38;13.48;;;9.10;99.90;;;;;;5115517;28;20028;-89
2023/04/10 04:58:17;;;;;;;22.45;11.32;;;9.10;99.90;;;;;;5114059;28;20034;-89
2023/04/10 05:00:43;;;;;;;24.27;11.88;;;9.10;99.90;;;;;;5115511;28;20034;-89
2023/04/10 05:03:08;;;;;;;19.80;9.93;;;9.10;99.90;;;;;;5114837;28;20027;-90
2023/04/10 05:05:34;;;;;;;15.45;8.63;;;9.10;99.90;;;;;;5114002;28;20446;-89
2023/04/10 05:08:00;;;;;;;19.48;9.95;;;9.20;99.90;;;;;;5115129;28;20038;-89
2023/04/10 05:10:25;;;;;;;15.50;8.82;;;9.20;99.90;;;;;;5115347;28;20039;-89
2023/04/10 05:12:51;;;;;;;13.60;7.55;;;9.20;99.90;;;;;;5113803;28;20124;-90
2023/04/10 05:15:17;;;;;;;14.98;7.40;;;9.30;99.90;;;;;;5114258;28;20047;-90
2023/04/10 05:17:42;;;;;;;12.40;7.15;;;9.30;99.90;;;;;;5115415;28;20023;-90
2023/04/10 05:20:09;;;;;;;12.80;6.88;;;9.30;99.90;;;;;;5114619;28;20028;-90
2023/04/10 05:22:35;;;;;;;12.65;7.28;;;9.30;99.90;;;;;;5113659;28;20044;-89
2023/04/10 05:25:00;;;;;;;11.60;6.70;;;9.30;99.90;;;;;;5114032;28;20144;-91
2023/04/10 05:27:27;;;;;;;10.93;6.47;;;9.40;99.90;;;;;;5114045;28;20127;-90
2023/04/10 05:29:53;;;;;;;12.48;6.22;;;9.40;99.90;;;;;;5113972;28;20392;-89
2023/04/10 05:32:18;;;;;;;12.13;6.60;;;9.40;99.90;;;;;;5114947;28;20026;-90
2023/04/10 05:34:44;;;;;;;10.50;6.85;;;9.40;99.90;;;;;;5113735;28;20028;-90
2023/04/10 05:37:11;;;;;;;11.32;5.85;;;9.40;99.90;;;;;;5114310;28;20035;-89
2023/04/10 05:39:37;;;;;;;11.00;6.63;;;9.50;99.90;;;;;;5128021;28;20034;-90
2023/04/10 05:42:03;;;;;;;8.98;5.38;;;9.50;99.90;;;;;;5125730;28;20023;-91
2023/04/10 05:44:30;;;;;;;12.55;5.03;;;9.50;99.90;;;;;;5122098;28;20381;-90
2023/04/10 05:46:55;;;;;;;10.98;5.93;;;9.50;99.90;;;;;;5120147;28;20582;-90
2023/04/10 05:49:21;;;;;;;12.32;5.75;;;9.50;99.90;;;;;;5124427;28;20042;-90
2023/04/10 05:51:49;;;;;;;10.48;5.30;;;9.50;99.90;;;;;;5120812;28;20473;-90
2023/04/10 05:54:15;;;;;;;13.02;5.38;;;9.50;99.90;;;;;;5114920;28;20031;-88
2023/04/10 05:56:41;;;;;;;10.88;5.97;;;9.60;99.90;;;;;;5114717;28;20027;-90
2023/04/10 05:59:07;;;;;;;11.38;5.50;;;9.60;99.90;;;;;;5120128;28;20023;-89
2023/04/10 06:01:32;;;;;;;10.48;5.75;;;9.60;99.90;;;;;;5115902;28;20469;-89
2023/04/10 06:03:58;;;;;;;9.82;5.28;;;9.60;99.90;;;;;;5115199;28;20538;-90
2023/04/10 06:06:25;;;;;;;11.18;5.70;;;9.60;99.90;;;;;;5114762;28;20512;-91
2023/04/10 06:08:51;;;;;;;10.68;5.75;;;9.60;99.90;;;;;;5112858;28;20035;-91
2023/04/10 06:11:17;;;;;;;10.52;5.72;;;9.60;99.90;;;;;;5113723;28;20019;-91
2023/04/10 06:13:42;;;;;;;9.30;5.40;;;9.70;99.90;;;;;;5113094;28;20086;-90
2023/04/10 06:16:08;;;;;;;9.65;5.25;;;9.70;99.90;;;;;;5113732;28;20088;-92
2023/04/10 06:18:34;;;;;;;9.13;4.50;;;9.70;99.90;;;;;;5114584;28;20181;-91
2023/04/10 06:21:03;;;;;;;9.43;4.05;;;9.70;99.90;;;;;;5113345;28;20026;-91
2023/04/10 06:23:28;;;;;;;7.25;4.40;;;9.70;99.90;;;;;;5111658;28;20023;-91
2023/04/10 06:25:54;;;;;;;9.82;4.70;;;9.70;99.90;;;;;;5112161;28;20498;-92
2023/04/10 06:28:20;;;;;;;8.50;4.00;;;9.80;99.90;;;;;;5111616;28;20031;-92
2023/04/10 06:30:46;;;;;;;6.78;3.65;;;9.80;99.90;;;;;;5111775;28;20024;-92
2023/04/10 06:33:12;;;;;;;8.10;4.50;;;9.80;99.90;;;;;;5112967;28;20035;-91
2023/04/10 06:35:37;;;;;;;8.23;4.22;;;9.80;99.90;;;;;;5111719;28;20485;-93
2023/04/10 06:38:03;;;;;;;5.95;3.10;;;9.80;99.90;;;;;;5113085;28;20814;-92
2023/04/10 06:40:29;;;;;;;6.75;3.58;;;9.90;99.90;;;;;;5112440;28;20020;-91
2023/04/10 06:42:55;;;;;;;6.32;4.00;;;9.90;99.90;;;;;;5111976;28;20069;-91
2023/04/10 06:45:21;;;;;;;8.10;3.20;;;9.90;99.90;;;;;;5110967;28;20027;-91
2023/04/10 06:47:47;;;;;;;6.07;3.25;;;10.00;99.90;;;;;;5115148;27;20034;-91
2023/04/10 06:50:13;;;;;;;6.68;3.70;;;10.00;99.90;;;;;;5111627;28;20028;-91
2023/04/10 06:52:38;;;;;;;7.35;3.53;;;10.00;99.90;;;;;;5112388;28;20016;-91
2023/04/10 06:55:04;;;;;;;5.55;3.30;;;10.00;99.90;;;;;;5111866;28;20034;-91
2023/04/10 06:57:30;;;;;;;7.88;3.50;;;10.00;99.90;;;;;;5101570;28;20098;-93
2023/04/10 06:59:56;;;;;;;13.93;5.93;;;10.10;99.90;;;;;;5110493;28;20065;-90
2023/04/10 07:02:21;;;;;;;8.85;3.95;;;10.10;99.90;;;;;;5110304;28;20026;-92
2023/04/10 07:04:47;;;;;;;21.05;7.13;;;10.10;99.90;;;;;;5105139;28;20047;-91
2023/04/10 07:07:14;;;;;;;8.90;3.83;;;10.10;99.90;;;;;;5111109;28;20066;-92
2023/04/10 07:09:40;;;;;;;7.13;3.20;;;10.20;99.90;;;;;;5111268;28;20391;-92
2023/04/10 07:12:06;;;;;;;7.35;3.63;;;10.20;99.90;;;;;;5117646;28;20018;-91
2023/04/10 07:14:35;;;;;;;7.55;4.05;;;10.20;99.90;;;;;;5112095;28;20118;-91
2023/04/10 07:17:01;;;;;;;7.70;3.95;;;10.30;99.90;;;;;;5111490;28;20031;-91
2023/04/10 07:19:27;;;;;;;5.88;2.30;;;10.30;99.90;;;;;;5111694;28;20024;-92
2023/04/10 07:21:53;;;;;;;9.38;4.32;;;10.40;99.90;;;;;;5112056;28;20076;-92
2023/04/10 07:24:18;;;;;;;12.82;4.18;;;10.40;99.90;;;;;;5113128;28;20027;-92
2023/04/10 07:26:45;;;;;;;9.10;3.92;;;10.40;99.90;;;;;;5116837;28;20030;-92
2023/04/10 07:29:12;;;;;;;8.80;3.83;;;10.40;99.90;;;;;;5119526;28;20095;-92
2023/04/10 07:31:38;;;;;;;14.38;5.03;;;10.50;99.90;;;;;;5129577;28;20045;-92
2023/04/10 07:34:05;;;;;;;8.35;3.92;;;10.50;99.90;;;;;;5116889;28;20053;-92
2023/04/10 07:36:31;;;;;;;7.32;3.55;;;10.50;99.90;;;;;;5097050;28;20028;-92
2023/04/10 07:38:57;;;;;;;5.70;2.35;;;10.50;99.90;;;;;;5096133;28;20103;-92
2023/04/10 07:41:23;;;;;;;5.85;2.72;;;10.50;99.90;;;;;;5095731;28;20481;-92
2023/04/10 07:43:49;;;;;;;5.97;2.35;;;10.50;99.90;;;;;;5097787;28;20047;-92
2023/04/10 07:46:16;;;;;;;5.30;2.83;;;10.50;99.90;;;;;;5097631;28;20049;-91
2023/04/10 07:48:43;;;;;;;4.45;2.50;;;10.60;99.90;;;;;;5098699;28;20082;-90
2023/04/10 07:51:09;;;;;;;4.75;2.47;;;10.60;99.90;;;;;;5095267;28;20020;-90
2023/04/10 07:53:38;;;;;;;4.00;2.17;;;10.60;99.90;;;;;;5100391;28;20503;-91
2023/04/10 07:56:05;;;;;;;6.10;2.60;;;10.70;99.90;;;;;;5112152;28;20033;-91
2023/04/10 07:58:32;;;;;;;5.53;2.95;;;10.70;99.90;;;;;;5107566;28;20050;-91
2023/04/10 08:00:58;;;;;;;8.75;3.10;;;10.70;99.90;;;;;;5116663;28;20015;-90
2023/04/10 08:03:23;;;;;;;9.18;2.78;;;10.70;99.90;;;;;;5114618;28;20115;-90
2023/04/10 08:05:49;;;;;;;6.15;2.90;;;10.80;99.90;;;;;;5115170;28;20040;-92
2023/04/10 08:08:16;;;;;;;6.65;2.78;;;10.80;99.90;;;;;;5115410;28;20024;-92
2023/04/10 08:10:41;;;;;;;8.23;2.45;;;10.80;99.90;;;;;;5112091;28;20020;-91
2023/04/10 08:13:07;;;;;;;5.45;2.40;;;10.90;99.90;;;;;;5114882;28;20020;-91
2023/04/10 08:15:34;;;;;;;3.67;1.95;;;11.00;99.90;;;;;;5113486;28;20051;-91
2023/04/10 08:18:03;;;;;;;5.32;2.45;;;11.00;99.90;;;;;;5114713;28;20051;-90
2023/04/10 08:20:28;;;;;;;7.43;2.50;;;11.10;99.90;;;;;;5114418;28;20540;-91
2023/04/10 08:22:55;;;;;;;4.32;2.65;;;11.00;99.90;;;;;;5114208;28;20058;-91
2023/04/10 08:25:21;;;;;;;6.13;2.17;;;11.00;99.90;;;;;;5115362;28;20106;-91
2023/04/10 08:27:47;;;;;;;5.88;2.50;;;11.00;99.90;;;;;;5115671;28;20104;-92
2023/04/10 08:30:12;;;;;;;5.70;2.67;;;11.00;99.90;;;;;;5114822;28;20058;-92
2023/04/10 08:32:39;;;;;;;5.18;2.58;;;11.00;99.90;;;;;;5114065;28;20020;-92
2023/04/10 08:35:05;;;;;;;5.95;2.78;;;11.10;99.90;;;;;;5115058;28;20023;-92
2023/04/10 08:37:30;;;;;;;4.10;2.20;;;11.10;99.90;;;;;;5115045;28;20047;-92
2023/04/10 08:39:57;;;;;;;3.97;1.83;;;11.20;99.90;;;;;;5114729;28;20051;-92
2023/04/10 08:42:24;;;;;;;6.07;2.38;;;11.20;99.90;;;;;;5115298;28;20160;-92
2023/04/10 08:44:51;;;;;;;4.28;1.60;;;11.30;99.90;;;;;;5108796;28;20142;-93
2023/04/10 08:47:19;;;;;;;5.07;1.42;;;11.30;99.90;;;;;;5113851;28;20134;-91
2023/04/10 08:50:04;;;;;;;6.47;1.45;;;11.30;99.90;;;;;;5109315;28;20085;-91
2023/04/10 08:52:35;;;;;;;4.32;1.27;;;11.30;99.90;;;;;;5114613;28;20050;-91
2023/04/10 08:55:06;;;;;;;4.18;1.63;;;11.30;99.90;;;;;;5114824;28;21069;-91
2023/04/10 08:57:33;;;;;;;7.35;1.35;;;11.40;99.90;;;;;;5114036;28;20024;-91
2023/04/10 08:59:59;;;;;;;6.30;1.50;;;11.40;99.90;;;;;;5114730;28;20015;-92
2023/04/10 09:02:24;;;;;;;4.22;1.85;;;11.50;99.90;;;;;;5114857;28;20027;-92
2023/04/10 09:04:53;;;;;;;6.95;1.38;;;11.50;99.90;;;;;;5114623;28;20472;-92
2023/04/10 09:07:21;;;;;;;3.75;1.30;;;11.60;99.90;;;;;;5118137;28;20039;-91
2023/04/10 09:09:47;;;;;;;6.22;1.40;;;11.60;99.90;;;;;;5127959;28;20036;-91
2023/04/10 09:12:14;;;;;;;5.72;1.10;;;11.70;99.90;;;;;;5118303;28;20472;-91
2023/04/10 09:14:41;;;;;;;6.40;1.77;;;11.80;99.90;;;;;;5115526;28;20023;-92
2023/04/10 09:17:12;;;;;;;2.88;1.15;;;11.90;99.90;;;;;;5116107;28;20011;-92
2023/04/10 09:19:38;;;;;;;2.40;1.60;;;12.10;99.90;;;;;;5115423;28;20019;-92
2023/04/10 09:22:03;;;;;;;4.00;1.67;;;12.20;99.90;;;;;;5115637;28;20118;-93
2023/04/10 09:24:29;;;;;;;6.25;1.38;;;12.30;99.90;;;;;;5120601;28;20031;-92
2023/04/10 09:26:55;;;;;;;3.13;0.90;;;12.40;99.90;;;;;;5124480;28;20080;-91
2023/04/10 09:29:20;;;;;;;3.42;0.93;;;12.50;99.90;;;;;;5124048;28;20055;-92
2023/04/10 09:31:46;;;;;;;2.53;1.00;;;12.60;99.90;;;;;;5121931;28;20088;-91
2023/04/10 09:34:15;;;;;;;4.43;0.80;;;12.70;99.90;;;;;;5121181;28;20418;-91
2023/04/10 09:36:54;;;;;;;6.93;1.55;;;12.70;99.90;;;;;;5118446;28;20018;-92
2023/04/10 09:39:21;;;;;;;5.03;0.60;;;12.70;99.90;;;;;;5117889;28;20060;-91
2023/04/10 09:41:52;;;;;;;3.28;0.80;;;12.60;99.90;;;;;;5113926;28;20023;-91
2023/04/10 09:44:30;;;;;;;3.03;0.70;;;12.60;99.90;;;;;;5115881;28;20126;-92
2023/04/10 09:47:17;;;;;;;3.58;1.15;;;12.50;99.90;;;;;;5115435;28;20091;-92
2023/04/10 09:49:54;;;;;;;2.45;0.50;;;12.50;99.90;;;;;;5115367;28;20039;-90
2023/04/10 09:52:29;;;;;;;2.25;0.73;;;12.50;99.90;;;;;;5116707;28;20024;-91
2023/04/10 09:55:00;;;;;;;1.85;0.43;;;12.50;99.90;;;;;;5114763;28;20093;-89
2023/04/10 09:57:30;;;;;;;1.98;0.65;;;12.50;99.90;;;;;;5113887;28;20023;-91
2023/04/10 10:00:00;;;;;;;2.30;0.65;;;12.40;99.90;;;;;;5112334;28;20033;-93
2023/04/10 10:02:29;;;;;;;4.88;0.70;;;12.40;99.90;;;;;;5113092;28;20412;-91
2023/04/10 10:04:56;;;;;;;3.85;1.00;;;12.50;99.90;;;;;;5113201;28;20035;-92
2023/04/10 10:07:23;;;;;;;3.53;1.00;;;12.60;99.90;;;;;;5115449;28;20028;-92
2023/04/10 10:09:51;;;;;;;4.03;0.90;;;12.80;99.90;;;;;;5113414;28;20032;-91
2023/04/10 10:12:23;;;;;;;6.72;1.33;;;12.90;99.90;;;;;;5112425;28;20472;-89
2023/04/10 10:15:04;;;;;;;6.32;1.35;;;13.10;99.90;;;;;;5115222;28;20031;-91
2023/04/10 10:17:41;;;;;;;4.72;1.05;;;13.10;99.90;;;;;;5114539;28;20035;-89
2023/04/10 10:20:10;;;;;;;8.60;2.03;;;13.10;99.90;;;;;;5113969;28;20023;-91
2023/04/10 10:22:36;;;;;;;5.95;1.25;;;13.10;99.90;;;;;;5114381;28;20106;-91
2023/04/10 10:25:02;;;;;;;6.28;1.20;;;13.00;99.90;;;;;;5113326;28;20402;-90
2023/04/10 10:27:33;;;;;;;4.90;1.48;;;13.00;99.90;;;;;;5112964;28;20469;-90
2023/04/10 10:29:59;;;;;;;7.85;1.90;;;12.90;99.90;;;;;;5113029;28;20043;-91
2023/04/10 10:32:26;;;;;;;6.60;1.60;;;12.70;99.90;;;;;;5112698;28;20027;-90
2023/04/10 10:34:53;;;;;;;9.95;1.83;;;12.50;99.90;;;;;;5113316;28;20036;-89
2023/04/10 10:37:21;;;;;;;5.50;1.50;;;12.20;99.90;;;;;;5112549;28;20024;-91
2023/04/10 10:39:53;;;;;;;6.68;1.50;;;12.00;99.90;;;;;;5112669;28;20119;-91
2023/04/10 10:42:26;;;;;;;7.20;1.60;;;11.80;99.90;;;;;;5111930;28;20031;-91
2023/04/10 10:45:02;;;;;;;7.97;1.55;;;11.70;99.90;;;;;;5110049;28;20027;-91
2023/04/10 10:47:29;;;;;;;7.45;1.30;;;11.60;99.90;;;;;;5113623;28;20027;-90
2023/04/10 10:50:02;;;;;;;9.30;1.35;;;11.50;99.90;;;;;;5114791;28;20061;-90
2023/04/10 10:52:56;;;;;;;8.65;1.27;;;11.40;99.90;;;;;;5112282;28;20102;-89
2023/04/10 10:55:21;;;;;;;4.70;1.17;;;11.40;99.90;;;;;;5110339;28;20028;-91
2023/04/10 10:57:49;;;;;;;8.68;1.63;;;11.50;99.90;;;;;;5112001;28;20507;-91
2023/04/10 11:00:21;;;;;;;8.82;1.30;;;11.50;99.90;;;;;;5112545;28;20034;-89
2023/04/10 11:03:21;;;;;;;8.90;1.73;;;11.40;99.90;;;;;;5112894;28;20100;-90
2023/04/10 11:05:55;;;;;;;10.00;1.60;;;11.30;99.90;;;;;;5056075;28;20040;-90
2023/04/10 11:08:39;;;;;;;6.85;1.85;;;11.10;99.90;;;;;;5111596;28;20039;-89
2023/04/10 11:11:07;;;;;;;5.53;1.70;;;11.00;99.90;;;;;;5112719;28;20123;-88
2023/04/10 11:13:40;;;;;;;10.82;1.50;;;10.90;99.90;;;;;;5103274;28;20024;-88
2023/04/10 11:16:09;;;;;;;12.15;2.10;;;10.80;99.90;;;;;;5104983;28;20512;-89
2023/04/10 11:18:46;;;;;;;8.15;1.67;;;10.70;99.90;;;;;;5097512;28;20114;-88
2023/04/10 11:21:14;;;;;;;10.82;1.70;;;10.70;99.90;;;;;;5104978;28;20036;-89
2023/04/10 11:23:50;;;;;;;13.25;2.00;;;10.70;99.90;;;;;;5091603;28;20032;-88
2023/04/10 11:26:43;;;;;;;13.13;1.98;;;10.60;99.90;;;;;;5111942;28;20016;-89
2023/04/10 11:29:11;;;;;;;8.23;1.40;;;10.60;99.90;;;;;;5096424;28;20036;-89
2023/04/10 11:31:37;;;;;;;9.63;1.48;;;10.60;99.90;;;;;;5099617;28;20024;-87
2023/04/10 11:34:10;;;;;;;12.07;1.63;;;10.60;99.90;;;;;;5105618;28;20473;-88
2023/04/10 11:36:42;;;;;;;8.65;1.42;;;10.60;99.90;;;;;;5111093;28;20027;-89
2023/04/10 11:39:20;;;;;;;8.75;1.83;;;10.70;99.90;;;;;;5112141;28;20050;-87
2023/04/10 11:41:51;;;;;;;7.88;1.40;;;10.80;99.90;;;;;;5115814;28;20157;-89
2023/04/10 11:44:30;;;;;;;8.40;1.85;;;11.00;99.90;;;;;;5112071;28;20163;-90
2023/04/10 11:46:57;;;;;;;8.93;1.65;;;11.00;99.90;;;;;;5110721;28;20088;-87
2023/04/10 11:49:30;;;;;;;13.13;1.90;;;11.10;99.90;;;;;;5097032;28;20040;-90
2023/04/10 11:51:56;;;;;;;8.02;2.15;;;11.10;99.90;;;;;;5106096;28;20107;-90
2023/04/10 11:54:22;;;;;;;7.65;2.00;;;11.10;99.90;;;;;;5102420;28;20146;-87
2023/04/10 11:57:05;;;;;;;10.55;1.60;;;11.10;99.90;;;;;;5096239;28;20016;-91
2023/04/10 11:59:41;;;;;;;6.15;0.95;;;11.00;99.90;;;;;;5114562;28;20024;-94
2023/04/10 12:02:14;;;;;;;2.88;0.77;;;10.70;99.90;;;;;;5104024;28;20023;-91
2023/04/10 12:04:41;;;;;;;3.40;0.77;;;10.30;99.90;;;;;;5098310;28;20050;-91
2023/04/10 12:25:48;;;;;;;4.13;0.77;;;10.80;99.90;;;;;;5757019;22;20132;-89
2023/04/10 12:28:19;;;;;;;1.73;0.80;;;11.40;99.90;;;;;;5036637;28;20091;-88
2023/04/10 12:30:54;;;;;;;2.20;0.50;;;11.90;99.90;;;;;;5036508;28;20026;-87
2023/04/10 12:33:24;;;;;;;1.80;0.50;;;12.30;99.90;;;;;;5035454;28;20085;-88
2023/04/10 12:35:51;;;;;;;2.90;0.93;;;12.70;99.90;;;;;;5035041;28;20029;-88
2023/04/10 12:38:43;;;;;;;1.38;0.47;;;13.10;99.90;;;;;;5034199;28;20266;-87
2023/04/10 12:41:10;;;;;;;1.02;0.22;;;13.50;99.90;;;;;;5034799;28;20041;-88
2023/04/10 12:43:37;;;;;;;2.10;0.40;;;13.70;99.90;;;;;;5034178;28;20033;-86
2023/04/10 12:46:04;;;;;;;0.63;0.30;;;13.90;99.90;;;;;;5034785;28;20133;-88
2023/04/10 12:48:30;;;;;;;2.15;0.20;;;13.90;99.90;;;;;;5034950;28;20030;-86
2023/04/10 12:50:56;;;;;;;2.17;0.52;;;13.70;99.90;;;;;;5035153;28;20025;-88
2023/04/10 12:53:23;;;;;;;1.15;0.20;;;13.30;99.90;;;;;;5035387;28;20544;-87
2023/04/10 12:56:07;;;;;;;1.48;0.30;;;13.20;99.90;;;;;;5035216;28;20030;-88
2023/04/10 12:58:33;;;;;;;0.73;0.20;;;12.90;99.90;;;;;;5017850;28;20059;-86
2023/04/10 13:01:03;;;;;;;3.22;0.20;;;12.70;99.90;;;;;;5019864;28;20112;-86
2023/04/10 13:03:29;;;;;;;1.33;0.63;;;12.70;99.90;;;;;;5015984;28;20182;-87
2023/04/10 13:05:55;;;;;;;2.50;0.30;;;12.90;99.90;;;;;;5015205;28;20026;-87
2023/04/10 13:08:21;;;;;;;0.68;0.32;;;13.20;99.90;;;;;;5021626;28;20099;-87